< < Back
Terminal Aerodrome Forecast


Current Version              Previous Versions:   1  2  3  4  5  6  7  8  9  

Terminal Aerodrome Forecast

301
FTAK31 PAJN 172300
TAFAHN
TAF
PAHN 172331Z 1800/1824 VRB05KT P6SM SCT015 SCT025 OVC070
     FM180200 30008KT P6SM SCT025 BKN080
     FM181300 30011G17KT P6SM SCT025 BKN080
     FM182200 30012KT P6SM VCSH BKN050 OVC080
      AMD LTD TO CLD VIS AND WIND=



Latest METAR

602
SAUS70 KWBC 180400 RRV
MTRAHN
METAR KAHN 180651Z AUTO 29005KT 10SM CLR 03/01 A3009 RMK AO2 SLP193
T00330006


USA.gov is the U.S. government's official web portal to all federal, state and local government web resources and services.